Glen Cove, Washington
Current Conditions -  °F | °C
As of 10:56 PM on Saturday 22 Nov 2014 (Local Time) from KNUW Reporting Station
Light Rain Light Rain  
Wind Chill: 46°   Ceiling: 4000
Heat Index: 49°   Visibility: 10mi
Dew Point: 44°   Wind: 7mph
Humidity: 83%   Direction: 130°SE
Pressure: 30.1"   Gusts: NA
Location:  48.026°N, 122.859°W
Report Text: KNUW 230656Z 13006KT 10SM -RA BKN040 OVC060 09/07 A3010 RMK AO2 RAB04 SLP197 P0001 T00940067 $
Loading
Personal Weather Stations






























Interactive Weather Map New forecast layout! Learn more

10-Day Weather Forecast

Advertisements
Track Severe Weather on mobile